Powell, OH (43065)

6:31 AM EST on January 30, 2015 (GMT -0500)
Bartholomew Run | Change Station
CLOSE
Current Station
Personal Weather Station
Location: Powell, OH
Elevation: 902 ft
Nearby Weather Stations

Elev 902 ft 40.16 °N, 83.07 °W | Updated 41 seconds ago

Overcast
Overcast
23.7 °F
Feels Like 15 °F
N
8.0
Wind Variable Wind from NW
Gusts 14.0 mph

Today
High -- | Low -- °F
--% Chance of Precip.
Yesterday
High -- | Low -- °F
Precip. -- in
7:43 AM 5:48 PM
Waxing Gibbous, 82% visible
Pressure 30.24 in
Visibility 5.0 miles
Clouds Scattered Clouds 2100 ft
Mostly Cloudy 2600 ft
Mostly Cloudy 5500 ft
Windchill 15 °F
Dew Point 14 °F
Humidity 65%
Rainfall 0.00 in
Snow Depth Not available.
UV 0 out of 12
Pollen .10 out of 12
Air Quality Not available.
Flu Activity Not available.
SPECI KOSU 301122Z AUTO 33019G27KT 5SM -SN SCT021 BKN026 BKN055 M04/M08 A3024 RMK AO2 PK WND 34027/1114 SNB15 P0000 T10391083

More Conditions Fewer Conditions

Pressure 30.24 in
Visibility 5.0 miles
Clouds Scattered Clouds 2100 ft
Mostly Cloudy 2600 ft
Mostly Cloudy 5500 ft
Windchill 15 °F
Dew Point 14 °F
Humidity 65%
Rainfall 0.00 in
Snow Depth Not available.
UV 0 out of 12
Pollen .10 out of 12
Air Quality Not available.
Flu Activity Not available.
SPECI KOSU 301122Z AUTO 33019G27KT 5SM -SN SCT021 BKN026 BKN055 M04/M08 A3024 RMK AO2 PK WND 34027/1114 SNB15 P0000 T10391083

More Conditions Fewer Conditions

10-Day Weather Forecast

Almanac

Astronomy

Jan. 30, 2015 Rise Set
Actual Time
Civil Twilight
Nautical Twilight
Astronomical Twilight
Moon
Length of Visible Light
Length of Day
Tomorrow will be .
, % of the Moon is Illuminated

Today's Extremes

State Highs State Lows

Community

WunderPhotos

Upload Photos

1,791,737 photos uploaded!

WunderBlogs® & News

Nearby

Air Quality

  Air Quality AQ Index Pollutant
Not available.

Snow Depth

Station Depth Elevation

Earthquake Activity

City Distance Mag. Time & Date
Minimum magnitude displayed is 2.5.

Coastal Water Temperatures

Place Temperature

Nearby Weather Stations